Royal, Tennessee
Current Conditions -  °F | °C
As of 11:55 PM on Friday 19 Dec 2014 (Local Time) from KSYI Reporting Station
Overcast Overcast  
Wind Chill: 32°   Ceiling: 7000
Heat Index: 36°   Visibility: 10mi
Dew Point: 30°   Wind: 5mph
Humidity: 81%   Direction: 40°NE
Pressure: 30.19"   Gusts: NA
Location:  35.4645°N, 86.4889°W
Report Text: KSYI 200555Z AUTO 04004KT 10SM BKN070 OVC090 02/M01 A3019 RMK
Loading
Personal Weather Stations






























Interactive Weather Map New forecast layout! Learn more

10-Day Weather Forecast

Advertisements
Track Severe Weather on mobile